<?xml version="1.0" encoding="UTF-8" standalone="no" ?>
<gpx xmlns="http://www.topografix.com/GPX/1/1" xmlns:xsi="http://www.w3.org/2001/XMLSchema-instance" xsi:schemaLocation="http://www.topografix.com/GPX/1/1 http://www.topografix.com/GPX/1/1/gpx.xsd" version="1.1" creator="VisuGPX - https://www.visugpx.com">
  <metadata>
    <name>pas du pastel</name>
  </metadata>
  <trk>
    <name><![CDATA[BENEVISSE Pas du Pastel  INITIALE 2021-09-27 FB]]></name>
    <trkseg>
      <trkpt lat="44.75403" lon="5.5559">
        <ele>1244</ele>
        <time>2021-09-27T06:28:03Z</time>
      </trkpt>
      <trkpt lat="44.75352" lon="5.555">
        <ele>1245</ele>
        <time>2021-09-27T06:28:56Z</time>
      </trkpt>
      <trkpt lat="44.75347" lon="5.55456">
        <ele>1246</ele>
        <time>2021-09-27T06:29:21Z</time>
      </trkpt>
      <trkpt lat="44.75355" lon="5.55408">
        <ele>1245</ele>
        <time>2021-09-27T06:29:46Z</time>
      </trkpt>
      <trkpt lat="44.75373" lon="5.55367">
        <ele>1243</ele>
        <time>2021-09-27T06:30:10Z</time>
      </trkpt>
      <trkpt lat="44.75413" lon="5.55323">
        <ele>1250</ele>
        <time>2021-09-27T06:31:26Z</time>
      </trkpt>
      <trkpt lat="44.75442" lon="5.55309">
        <ele>1256</ele>
        <time>2021-09-27T06:32:04Z</time>
      </trkpt>
      <trkpt lat="44.75459" lon="5.55285">
        <ele>1266</ele>
        <time>2021-09-27T06:32:52Z</time>
      </trkpt>
      <trkpt lat="44.75482" lon="5.55265">
        <ele>1274</ele>
        <time>2021-09-27T06:33:37Z</time>
      </trkpt>
      <trkpt lat="44.75505" lon="5.55245">
        <ele>1282</ele>
        <time>2021-09-27T06:34:20Z</time>
      </trkpt>
      <trkpt lat="44.75531" lon="5.55226">
        <ele>1291</ele>
        <time>2021-09-27T06:35:07Z</time>
      </trkpt>
      <trkpt lat="44.75556" lon="5.55229">
        <ele>1300</ele>
        <time>2021-09-27T06:35:56Z</time>
      </trkpt>
      <trkpt lat="44.75564" lon="5.55222">
        <ele>1307</ele>
        <time>2021-09-27T06:36:43Z</time>
      </trkpt>
      <trkpt lat="44.75587" lon="5.55214">
        <ele>1316</ele>
        <time>2021-09-27T06:37:35Z</time>
      </trkpt>
      <trkpt lat="44.75615" lon="5.55205">
        <ele>1323</ele>
        <time>2021-09-27T06:38:24Z</time>
      </trkpt>
      <trkpt lat="44.75637" lon="5.55188">
        <ele>1333</ele>
        <time>2021-09-27T06:39:13Z</time>
      </trkpt>
      <trkpt lat="44.75648" lon="5.55159">
        <ele>1341</ele>
        <time>2021-09-27T06:40:01Z</time>
      </trkpt>
      <trkpt lat="44.75663" lon="5.55113">
        <ele>1346</ele>
        <time>2021-09-27T06:40:48Z</time>
      </trkpt>
      <trkpt lat="44.75674" lon="5.5508">
        <ele>1351</ele>
        <time>2021-09-27T06:41:27Z</time>
      </trkpt>
      <trkpt lat="44.75687" lon="5.5504">
        <ele>1352</ele>
        <time>2021-09-27T06:42:08Z</time>
      </trkpt>
      <trkpt lat="44.75696" lon="5.54995">
        <ele>1357</ele>
        <time>2021-09-27T06:42:54Z</time>
      </trkpt>
      <trkpt lat="44.75712" lon="5.54951">
        <ele>1361</ele>
        <time>2021-09-27T06:43:45Z</time>
      </trkpt>
      <trkpt lat="44.75729" lon="5.54909">
        <ele>1362</ele>
        <time>2021-09-27T06:44:36Z</time>
      </trkpt>
      <trkpt lat="44.7575" lon="5.54882">
        <ele>1359</ele>
        <time>2021-09-27T06:45:32Z</time>
      </trkpt>
      <trkpt lat="44.75781" lon="5.5487">
        <ele>1365</ele>
        <time>2021-09-27T06:46:14Z</time>
      </trkpt>
      <trkpt lat="44.75805" lon="5.54871">
        <ele>1371</ele>
        <time>2021-09-27T06:47:07Z</time>
      </trkpt>
      <trkpt lat="44.75843" lon="5.54877">
        <ele>1373</ele>
        <time>2021-09-27T06:47:45Z</time>
      </trkpt>
      <trkpt lat="44.75883" lon="5.54878">
        <ele>1378</ele>
        <time>2021-09-27T06:48:24Z</time>
      </trkpt>
      <trkpt lat="44.75909" lon="5.54874">
        <ele>1383</ele>
        <time>2021-09-27T06:49:03Z</time>
      </trkpt>
      <trkpt lat="44.75925" lon="5.54839">
        <ele>1387</ele>
        <time>2021-09-27T06:49:46Z</time>
      </trkpt>
      <trkpt lat="44.75943" lon="5.54796">
        <ele>1387</ele>
        <time>2021-09-27T06:50:28Z</time>
      </trkpt>
      <trkpt lat="44.75965" lon="5.54754">
        <ele>1386</ele>
        <time>2021-09-27T06:51:10Z</time>
      </trkpt>
      <trkpt lat="44.75977" lon="5.54709">
        <ele>1387</ele>
        <time>2021-09-27T06:51:54Z</time>
      </trkpt>
      <trkpt lat="44.76004" lon="5.54671">
        <ele>1386</ele>
        <time>2021-09-27T06:52:39Z</time>
      </trkpt>
      <trkpt lat="44.76032" lon="5.54648">
        <ele>1389</ele>
        <time>2021-09-27T06:53:25Z</time>
      </trkpt>
      <trkpt lat="44.76061" lon="5.54618">
        <ele>1395</ele>
        <time>2021-09-27T06:54:11Z</time>
      </trkpt>
      <trkpt lat="44.76085" lon="5.54592">
        <ele>1403</ele>
        <time>2021-09-27T06:55:04Z</time>
      </trkpt>
      <trkpt lat="44.76113" lon="5.54576">
        <ele>1411</ele>
        <time>2021-09-27T06:55:56Z</time>
      </trkpt>
      <trkpt lat="44.76138" lon="5.5455">
        <ele>1417</ele>
        <time>2021-09-27T06:56:41Z</time>
      </trkpt>
      <trkpt lat="44.76166" lon="5.54537">
        <ele>1422</ele>
        <time>2021-09-27T06:57:22Z</time>
      </trkpt>
      <trkpt lat="44.76185" lon="5.54509">
        <ele>1430</ele>
        <time>2021-09-27T06:58:16Z</time>
      </trkpt>
      <trkpt lat="44.76212" lon="5.54497">
        <ele>1436</ele>
        <time>2021-09-27T06:59:00Z</time>
      </trkpt>
      <trkpt lat="44.76232" lon="5.54475">
        <ele>1439</ele>
        <time>2021-09-27T06:59:41Z</time>
      </trkpt>
      <trkpt lat="44.76243" lon="5.54433">
        <ele>1437</ele>
        <time>2021-09-27T07:00:20Z</time>
      </trkpt>
      <trkpt lat="44.76256" lon="5.54396">
        <ele>1437</ele>
        <time>2021-09-27T07:01:01Z</time>
      </trkpt>
      <trkpt lat="44.76271" lon="5.54359">
        <ele>1443</ele>
        <time>2021-09-27T07:01:43Z</time>
      </trkpt>
      <trkpt lat="44.76291" lon="5.54327">
        <ele>1448</ele>
        <time>2021-09-27T07:02:22Z</time>
      </trkpt>
      <trkpt lat="44.76298" lon="5.54296">
        <ele>1453</ele>
        <time>2021-09-27T07:03:10Z</time>
      </trkpt>
      <trkpt lat="44.76309" lon="5.54294">
        <ele>1453</ele>
        <time>2021-09-27T07:03:55Z</time>
      </trkpt>
      <trkpt lat="44.76298" lon="5.54284">
        <ele>1454</ele>
        <time>2021-09-27T07:05:14Z</time>
      </trkpt>
      <trkpt lat="44.76294" lon="5.54238">
        <ele>1460</ele>
        <time>2021-09-27T07:06:16Z</time>
      </trkpt>
      <trkpt lat="44.76284" lon="5.54199">
        <ele>1470</ele>
        <time>2021-09-27T07:07:36Z</time>
      </trkpt>
      <trkpt lat="44.76274" lon="5.54165">
        <ele>1480</ele>
        <time>2021-09-27T07:09:03Z</time>
      </trkpt>
      <trkpt lat="44.76258" lon="5.54137">
        <ele>1488</ele>
        <time>2021-09-27T07:10:09Z</time>
      </trkpt>
      <trkpt lat="44.76234" lon="5.54115">
        <ele>1495</ele>
        <time>2021-09-27T07:11:14Z</time>
      </trkpt>
      <trkpt lat="44.76206" lon="5.54092">
        <ele>1497</ele>
        <time>2021-09-27T07:11:52Z</time>
      </trkpt>
      <trkpt lat="44.7619" lon="5.54083">
        <ele>1497</ele>
        <time>2021-09-27T07:13:10Z</time>
      </trkpt>
      <trkpt lat="44.76173" lon="5.5406">
        <ele>1507</ele>
        <time>2021-09-27T07:14:04Z</time>
      </trkpt>
      <trkpt lat="44.76158" lon="5.54034">
        <ele>1518</ele>
        <time>2021-09-27T07:15:07Z</time>
      </trkpt>
      <trkpt lat="44.76139" lon="5.54005">
        <ele>1532</ele>
        <time>2021-09-27T07:16:24Z</time>
      </trkpt>
      <trkpt lat="44.76113" lon="5.53984">
        <ele>1540</ele>
        <time>2021-09-27T07:17:24Z</time>
      </trkpt>
      <trkpt lat="44.76091" lon="5.53958">
        <ele>1547</ele>
        <time>2021-09-27T07:18:19Z</time>
      </trkpt>
      <trkpt lat="44.76077" lon="5.53942">
        <ele>1551</ele>
        <time>2021-09-27T07:19:36Z</time>
      </trkpt>
      <trkpt lat="44.76103" lon="5.53947">
        <ele>1559</ele>
        <time>2021-09-27T07:21:07Z</time>
      </trkpt>
      <trkpt lat="44.76109" lon="5.53947">
        <ele>1561</ele>
        <time>2021-09-27T07:22:47Z</time>
      </trkpt>
      <trkpt lat="44.76123" lon="5.5395">
        <ele>1564</ele>
        <time>2021-09-27T07:25:17Z</time>
      </trkpt>
      <trkpt lat="44.76123" lon="5.53933">
        <ele>1573</ele>
        <time>2021-09-27T07:27:07Z</time>
      </trkpt>
      <trkpt lat="44.76112" lon="5.53928">
        <ele>1583</ele>
        <time>2021-09-27T07:29:58Z</time>
      </trkpt>
      <trkpt lat="44.76113" lon="5.53925">
        <ele>1586</ele>
        <time>2021-09-27T07:33:27Z</time>
      </trkpt>
      <trkpt lat="44.76127" lon="5.53915">
        <ele>1596</ele>
        <time>2021-09-27T07:35:11Z</time>
      </trkpt>
      <trkpt lat="44.76148" lon="5.53903">
        <ele>1598</ele>
        <time>2021-09-27T07:36:16Z</time>
      </trkpt>
      <trkpt lat="44.7617" lon="5.53911">
        <ele>1597</ele>
        <time>2021-09-27T07:37:18Z</time>
      </trkpt>
      <trkpt lat="44.76195" lon="5.53916">
        <ele>1598</ele>
        <time>2021-09-27T07:38:24Z</time>
      </trkpt>
      <trkpt lat="44.7623" lon="5.53918">
        <ele>1604</ele>
        <time>2021-09-27T07:39:16Z</time>
      </trkpt>
      <trkpt lat="44.76257" lon="5.53923">
        <ele>1611</ele>
        <time>2021-09-27T07:40:26Z</time>
      </trkpt>
      <trkpt lat="44.76282" lon="5.5393">
        <ele>1616</ele>
        <time>2021-09-27T07:41:34Z</time>
      </trkpt>
      <trkpt lat="44.76304" lon="5.53934">
        <ele>1620</ele>
        <time>2021-09-27T07:42:56Z</time>
      </trkpt>
      <trkpt lat="44.76334" lon="5.5394">
        <ele>1627</ele>
        <time>2021-09-27T07:44:02Z</time>
      </trkpt>
      <trkpt lat="44.7636" lon="5.53947">
        <ele>1635</ele>
        <time>2021-09-27T07:45:16Z</time>
      </trkpt>
      <trkpt lat="44.76387" lon="5.53942">
        <ele>1641</ele>
        <time>2021-09-27T07:46:41Z</time>
      </trkpt>
      <trkpt lat="44.76413" lon="5.53961">
        <ele>1645</ele>
        <time>2021-09-27T07:47:43Z</time>
      </trkpt>
      <trkpt lat="44.76437" lon="5.53979">
        <ele>1645</ele>
        <time>2021-09-27T07:48:45Z</time>
      </trkpt>
      <trkpt lat="44.76469" lon="5.53988">
        <ele>1648</ele>
        <time>2021-09-27T07:49:46Z</time>
      </trkpt>
      <trkpt lat="44.76501" lon="5.54008">
        <ele>1649</ele>
        <time>2021-09-27T07:50:47Z</time>
      </trkpt>
      <trkpt lat="44.76524" lon="5.54025">
        <ele>1651</ele>
        <time>2021-09-27T07:52:03Z</time>
      </trkpt>
      <trkpt lat="44.76521" lon="5.54007">
        <ele>1659</ele>
        <time>2021-09-27T07:53:06Z</time>
      </trkpt>
      <trkpt lat="44.7652" lon="5.53996">
        <ele>1669</ele>
        <time>2021-09-27T07:54:32Z</time>
      </trkpt>
      <trkpt lat="44.76531" lon="5.53982">
        <ele>1674</ele>
        <time>2021-09-27T07:55:40Z</time>
      </trkpt>
      <trkpt lat="44.76548" lon="5.53973">
        <ele>1681</ele>
        <time>2021-09-27T07:56:33Z</time>
      </trkpt>
      <trkpt lat="44.76543" lon="5.53963">
        <ele>1688</ele>
        <time>2021-09-27T07:58:04Z</time>
      </trkpt>
      <trkpt lat="44.76538" lon="5.53957">
        <ele>1689</ele>
        <time>2021-09-27T08:00:41Z</time>
      </trkpt>
      <trkpt lat="44.76528" lon="5.5393">
        <ele>1699</ele>
        <time>2021-09-27T08:01:53Z</time>
      </trkpt>
      <trkpt lat="44.76512" lon="5.53897">
        <ele>1706</ele>
        <time>2021-09-27T08:02:59Z</time>
      </trkpt>
      <trkpt lat="44.76505" lon="5.53877">
        <ele>1714</ele>
        <time>2021-09-27T08:04:34Z</time>
      </trkpt>
      <trkpt lat="44.76492" lon="5.5387">
        <ele>1720</ele>
        <time>2021-09-27T08:05:32Z</time>
      </trkpt>
      <trkpt lat="44.7649" lon="5.53853">
        <ele>1728</ele>
        <time>2021-09-27T08:06:58Z</time>
      </trkpt>
      <trkpt lat="44.76492" lon="5.53845">
        <ele>1733</ele>
        <time>2021-09-27T08:08:59Z</time>
      </trkpt>
      <trkpt lat="44.76496" lon="5.53847">
        <ele>1737</ele>
        <time>2021-09-27T08:11:05Z</time>
      </trkpt>
      <trkpt lat="44.76494" lon="5.53828">
        <ele>1743</ele>
        <time>2021-09-27T08:12:43Z</time>
      </trkpt>
      <trkpt lat="44.76496" lon="5.53813">
        <ele>1753</ele>
        <time>2021-09-27T08:14:23Z</time>
      </trkpt>
      <trkpt lat="44.76492" lon="5.53797">
        <ele>1765</ele>
        <time>2021-09-27T08:16:39Z</time>
      </trkpt>
      <trkpt lat="44.76492" lon="5.53769">
        <ele>1778</ele>
        <time>2021-09-27T08:19:19Z</time>
      </trkpt>
      <trkpt lat="44.76489" lon="5.53768">
        <ele>1789</ele>
        <time>2021-09-27T08:30:10Z</time>
      </trkpt>
      <trkpt lat="44.76471" lon="5.53734">
        <ele>1790</ele>
        <time>2021-09-27T08:31:07Z</time>
      </trkpt>
      <trkpt lat="44.76463" lon="5.53696">
        <ele>1798</ele>
        <time>2021-09-27T08:32:20Z</time>
      </trkpt>
      <trkpt lat="44.76466" lon="5.53674">
        <ele>1814</ele>
        <time>2021-09-27T08:35:15Z</time>
      </trkpt>
      <trkpt lat="44.76482" lon="5.53681">
        <ele>1821</ele>
        <time>2021-09-27T08:36:42Z</time>
      </trkpt>
      <trkpt lat="44.76471" lon="5.53667">
        <ele>1822</ele>
        <time>2021-09-27T08:38:37Z</time>
      </trkpt>
      <trkpt lat="44.76452" lon="5.5364">
        <ele>1825</ele>
        <time>2021-09-27T08:39:24Z</time>
      </trkpt>
      <trkpt lat="44.76451" lon="5.53599">
        <ele>1831</ele>
        <time>2021-09-27T08:40:34Z</time>
      </trkpt>
      <trkpt lat="44.76448" lon="5.53558">
        <ele>1842</ele>
        <time>2021-09-27T08:41:43Z</time>
      </trkpt>
      <trkpt lat="44.76454" lon="5.5353">
        <ele>1848</ele>
        <time>2021-09-27T08:42:44Z</time>
      </trkpt>
      <trkpt lat="44.76493" lon="5.5352">
        <ele>1853</ele>
        <time>2021-09-27T08:43:33Z</time>
      </trkpt>
      <trkpt lat="44.76509" lon="5.53477">
        <ele>1861</ele>
        <time>2021-09-27T08:44:26Z</time>
      </trkpt>
      <trkpt lat="44.76507" lon="5.53428">
        <ele>1867</ele>
        <time>2021-09-27T08:45:09Z</time>
      </trkpt>
      <trkpt lat="44.76508" lon="5.53381">
        <ele>1873</ele>
        <time>2021-09-27T08:45:49Z</time>
      </trkpt>
      <trkpt lat="44.76518" lon="5.53342">
        <ele>1876</ele>
        <time>2021-09-27T08:46:19Z</time>
      </trkpt>
      <trkpt lat="44.76544" lon="5.53324">
        <ele>1879</ele>
        <time>2021-09-27T08:46:49Z</time>
      </trkpt>
      <trkpt lat="44.76572" lon="5.53311">
        <ele>1881</ele>
        <time>2021-09-27T08:47:21Z</time>
      </trkpt>
      <trkpt lat="44.76603" lon="5.53323">
        <ele>1880</ele>
        <time>2021-09-27T08:47:54Z</time>
      </trkpt>
      <trkpt lat="44.76628" lon="5.53345">
        <ele>1879</ele>
        <time>2021-09-27T08:48:28Z</time>
      </trkpt>
      <trkpt lat="44.76645" lon="5.53378">
        <ele>1877</ele>
        <time>2021-09-27T08:48:57Z</time>
      </trkpt>
      <trkpt lat="44.76664" lon="5.53405">
        <ele>1873</ele>
        <time>2021-09-27T08:49:27Z</time>
      </trkpt>
      <trkpt lat="44.76691" lon="5.53422">
        <ele>1870</ele>
        <time>2021-09-27T08:50:20Z</time>
      </trkpt>
      <trkpt lat="44.76716" lon="5.53437">
        <ele>1865</ele>
        <time>2021-09-27T08:50:52Z</time>
      </trkpt>
      <trkpt lat="44.76745" lon="5.53427">
        <ele>1862</ele>
        <time>2021-09-27T08:51:19Z</time>
      </trkpt>
      <trkpt lat="44.76771" lon="5.53422">
        <ele>1863</ele>
        <time>2021-09-27T08:52:00Z</time>
      </trkpt>
      <trkpt lat="44.76799" lon="5.53417">
        <ele>1862</ele>
        <time>2021-09-27T08:52:32Z</time>
      </trkpt>
      <trkpt lat="44.76825" lon="5.5341">
        <ele>1860</ele>
        <time>2021-09-27T08:52:58Z</time>
      </trkpt>
      <trkpt lat="44.76852" lon="5.53398">
        <ele>1860</ele>
        <time>2021-09-27T08:53:27Z</time>
      </trkpt>
      <trkpt lat="44.76882" lon="5.53396">
        <ele>1855</ele>
        <time>2021-09-27T08:53:57Z</time>
      </trkpt>
      <trkpt lat="44.76909" lon="5.5339">
        <ele>1854</ele>
        <time>2021-09-27T08:54:20Z</time>
      </trkpt>
      <trkpt lat="44.76935" lon="5.53379">
        <ele>1852</ele>
        <time>2021-09-27T08:54:45Z</time>
      </trkpt>
      <trkpt lat="44.76961" lon="5.53368">
        <ele>1853</ele>
        <time>2021-09-27T08:55:11Z</time>
      </trkpt>
      <trkpt lat="44.76984" lon="5.53349">
        <ele>1851</ele>
        <time>2021-09-27T08:55:49Z</time>
      </trkpt>
      <trkpt lat="44.77006" lon="5.53326">
        <ele>1850</ele>
        <time>2021-09-27T08:56:14Z</time>
      </trkpt>
      <trkpt lat="44.77035" lon="5.53329">
        <ele>1855</ele>
        <time>2021-09-27T08:56:53Z</time>
      </trkpt>
      <trkpt lat="44.77062" lon="5.53327">
        <ele>1856</ele>
        <time>2021-09-27T08:57:40Z</time>
      </trkpt>
      <trkpt lat="44.77079" lon="5.53295">
        <ele>1855</ele>
        <time>2021-09-27T08:58:11Z</time>
      </trkpt>
      <trkpt lat="44.77101" lon="5.53274">
        <ele>1854</ele>
        <time>2021-09-27T08:58:41Z</time>
      </trkpt>
      <trkpt lat="44.77129" lon="5.53268">
        <ele>1854</ele>
        <time>2021-09-27T08:59:28Z</time>
      </trkpt>
      <trkpt lat="44.77151" lon="5.53281">
        <ele>1844</ele>
        <time>2021-09-27T09:00:33Z</time>
      </trkpt>
      <trkpt lat="44.77175" lon="5.53302">
        <ele>1837</ele>
        <time>2021-09-27T09:01:19Z</time>
      </trkpt>
      <trkpt lat="44.77182" lon="5.53323">
        <ele>1826</ele>
      </trkpt>
      <trkpt lat="44.77186" lon="5.53344">
        <ele>1820</ele>
      </trkpt>
      <trkpt lat="44.77192" lon="5.5336">
        <ele>1816</ele>
      </trkpt>
      <trkpt lat="44.77196" lon="5.53392">
        <ele>1807</ele>
        <time>2021-09-27T09:01:56Z</time>
      </trkpt>
      <trkpt lat="44.77201" lon="5.53366">
        <ele>1816</ele>
      </trkpt>
      <trkpt lat="44.77204" lon="5.53334">
        <ele>1826</ele>
      </trkpt>
      <trkpt lat="44.77203" lon="5.53305">
        <ele>1835</ele>
        <time>2021-09-27T09:03:31Z</time>
      </trkpt>
      <trkpt lat="44.77221" lon="5.53274">
        <ele>1843</ele>
        <time>2021-09-27T09:04:22Z</time>
      </trkpt>
      <trkpt lat="44.77237" lon="5.53242">
        <ele>1853</ele>
        <time>2021-09-27T09:05:14Z</time>
      </trkpt>
      <trkpt lat="44.77258" lon="5.53215">
        <ele>1858</ele>
        <time>2021-09-27T09:05:55Z</time>
      </trkpt>
      <trkpt lat="44.77274" lon="5.53181">
        <ele>1859</ele>
        <time>2021-09-27T09:06:33Z</time>
      </trkpt>
      <trkpt lat="44.77289" lon="5.53147">
        <ele>1860</ele>
        <time>2021-09-27T09:07:01Z</time>
      </trkpt>
      <trkpt lat="44.77307" lon="5.5312">
        <ele>1860</ele>
        <time>2021-09-27T09:07:27Z</time>
      </trkpt>
      <trkpt lat="44.77332" lon="5.53105">
        <ele>1862</ele>
        <time>2021-09-27T09:08:03Z</time>
      </trkpt>
      <trkpt lat="44.7736" lon="5.53102">
        <ele>1869</ele>
        <time>2021-09-27T09:08:41Z</time>
      </trkpt>
      <trkpt lat="44.77388" lon="5.53118">
        <ele>1875</ele>
        <time>2021-09-27T09:09:23Z</time>
      </trkpt>
      <trkpt lat="44.77416" lon="5.53109">
        <ele>1878</ele>
        <time>2021-09-27T09:09:56Z</time>
      </trkpt>
      <trkpt lat="44.77443" lon="5.53123">
        <ele>1880</ele>
        <time>2021-09-27T09:10:30Z</time>
      </trkpt>
      <trkpt lat="44.77455" lon="5.53157">
        <ele>1879</ele>
        <time>2021-09-27T09:12:35Z</time>
      </trkpt>
      <trkpt lat="44.77473" lon="5.53188">
        <ele>1889</ele>
        <time>2021-09-27T09:13:39Z</time>
      </trkpt>
      <trkpt lat="44.77498" lon="5.53216">
        <ele>1899</ele>
        <time>2021-09-27T09:14:37Z</time>
      </trkpt>
      <trkpt lat="44.77524" lon="5.53237">
        <ele>1908</ele>
        <time>2021-09-27T09:15:27Z</time>
      </trkpt>
      <trkpt lat="44.77544" lon="5.53264">
        <ele>1915</ele>
        <time>2021-09-27T09:16:23Z</time>
      </trkpt>
      <trkpt lat="44.77564" lon="5.53293">
        <ele>1921</ele>
        <time>2021-09-27T09:17:19Z</time>
      </trkpt>
      <trkpt lat="44.77578" lon="5.53325">
        <ele>1926</ele>
        <time>2021-09-27T09:18:00Z</time>
      </trkpt>
      <trkpt lat="44.77597" lon="5.53356">
        <ele>1933</ele>
        <time>2021-09-27T09:18:46Z</time>
      </trkpt>
      <trkpt lat="44.77609" lon="5.5338">
        <ele>1938</ele>
        <time>2021-09-27T09:19:31Z</time>
      </trkpt>
      <trkpt lat="44.77615" lon="5.53414">
        <ele>1943</ele>
        <time>2021-09-27T09:20:02Z</time>
      </trkpt>
      <trkpt lat="44.7762" lon="5.53451">
        <ele>1948</ele>
        <time>2021-09-27T09:20:38Z</time>
      </trkpt>
      <trkpt lat="44.77631" lon="5.53479">
        <ele>1951</ele>
        <time>2021-09-27T09:29:12Z</time>
      </trkpt>
      <trkpt lat="44.77624" lon="5.53466">
        <ele>1950</ele>
        <time>2021-09-27T09:30:53Z</time>
      </trkpt>
      <trkpt lat="44.77642" lon="5.53494">
        <ele>1950</ele>
        <time>2021-09-27T09:31:21Z</time>
      </trkpt>
      <trkpt lat="44.77667" lon="5.53512">
        <ele>1948</ele>
        <time>2021-09-27T09:31:47Z</time>
      </trkpt>
      <trkpt lat="44.77684" lon="5.53541">
        <ele>1946</ele>
        <time>2021-09-27T09:32:13Z</time>
      </trkpt>
      <trkpt lat="44.77704" lon="5.53569">
        <ele>1938</ele>
        <time>2021-09-27T09:32:47Z</time>
      </trkpt>
      <trkpt lat="44.77719" lon="5.53592">
        <ele>1930</ele>
        <time>2021-09-27T09:33:18Z</time>
      </trkpt>
      <trkpt lat="44.77733" lon="5.53621">
        <ele>1923</ele>
        <time>2021-09-27T09:33:46Z</time>
      </trkpt>
      <trkpt lat="44.77749" lon="5.53653">
        <ele>1915</ele>
        <time>2021-09-27T09:34:12Z</time>
      </trkpt>
      <trkpt lat="44.77763" lon="5.53687">
        <ele>1908</ele>
        <time>2021-09-27T09:34:38Z</time>
      </trkpt>
      <trkpt lat="44.77777" lon="5.53719">
        <ele>1901</ele>
        <time>2021-09-27T09:35:03Z</time>
      </trkpt>
      <trkpt lat="44.77799" lon="5.53743">
        <ele>1898</ele>
        <time>2021-09-27T09:35:36Z</time>
      </trkpt>
      <trkpt lat="44.77818" lon="5.53768">
        <ele>1895</ele>
        <time>2021-09-27T09:36:03Z</time>
      </trkpt>
      <trkpt lat="44.77835" lon="5.5379">
        <ele>1891</ele>
        <time>2021-09-27T09:36:29Z</time>
      </trkpt>
      <trkpt lat="44.77857" lon="5.53803">
        <ele>1885</ele>
        <time>2021-09-27T09:37:01Z</time>
      </trkpt>
      <trkpt lat="44.77873" lon="5.53834">
        <ele>1887</ele>
        <time>2021-09-27T09:37:32Z</time>
      </trkpt>
      <trkpt lat="44.77888" lon="5.53863">
        <ele>1888</ele>
        <time>2021-09-27T09:38:00Z</time>
      </trkpt>
      <trkpt lat="44.77912" lon="5.5388">
        <ele>1884</ele>
        <time>2021-09-27T09:38:33Z</time>
      </trkpt>
      <trkpt lat="44.77938" lon="5.53873">
        <ele>1883</ele>
        <time>2021-09-27T09:38:59Z</time>
      </trkpt>
      <trkpt lat="44.77952" lon="5.53904">
        <ele>1883</ele>
        <time>2021-09-27T09:39:25Z</time>
      </trkpt>
      <trkpt lat="44.77968" lon="5.53933">
        <ele>1884</ele>
        <time>2021-09-27T09:39:51Z</time>
      </trkpt>
      <trkpt lat="44.77987" lon="5.53962">
        <ele>1880</ele>
        <time>2021-09-27T09:40:19Z</time>
      </trkpt>
      <trkpt lat="44.77997" lon="5.53999">
        <ele>1875</ele>
        <time>2021-09-27T09:40:43Z</time>
      </trkpt>
      <trkpt lat="44.78008" lon="5.54033">
        <ele>1870</ele>
        <time>2021-09-27T09:41:09Z</time>
      </trkpt>
      <trkpt lat="44.78019" lon="5.54069">
        <ele>1868</ele>
        <time>2021-09-27T09:41:35Z</time>
      </trkpt>
      <trkpt lat="44.78029" lon="5.54108">
        <ele>1864</ele>
        <time>2021-09-27T09:42:02Z</time>
      </trkpt>
      <trkpt lat="44.78036" lon="5.54146">
        <ele>1861</ele>
        <time>2021-09-27T09:42:32Z</time>
      </trkpt>
      <trkpt lat="44.78041" lon="5.54183">
        <ele>1860</ele>
        <time>2021-09-27T09:43:00Z</time>
      </trkpt>
      <trkpt lat="44.7805" lon="5.54219">
        <ele>1861</ele>
        <time>2021-09-27T09:43:25Z</time>
      </trkpt>
      <trkpt lat="44.7806" lon="5.54257">
        <ele>1861</ele>
        <time>2021-09-27T09:43:54Z</time>
      </trkpt>
      <trkpt lat="44.78072" lon="5.54291">
        <ele>1861</ele>
        <time>2021-09-27T09:44:21Z</time>
      </trkpt>
      <trkpt lat="44.78086" lon="5.54324">
        <ele>1865</ele>
        <time>2021-09-27T09:44:53Z</time>
      </trkpt>
      <trkpt lat="44.78105" lon="5.54353">
        <ele>1868</ele>
        <time>2021-09-27T09:45:22Z</time>
      </trkpt>
      <trkpt lat="44.78121" lon="5.54383">
        <ele>1871</ele>
        <time>2021-09-27T09:45:49Z</time>
      </trkpt>
      <trkpt lat="44.7814" lon="5.5441">
        <ele>1874</ele>
        <time>2021-09-27T09:46:19Z</time>
      </trkpt>
      <trkpt lat="44.78154" lon="5.54441">
        <ele>1876</ele>
        <time>2021-09-27T09:46:48Z</time>
      </trkpt>
      <trkpt lat="44.78168" lon="5.54472">
        <ele>1880</ele>
        <time>2021-09-27T09:47:20Z</time>
      </trkpt>
      <trkpt lat="44.78178" lon="5.54508">
        <ele>1883</ele>
        <time>2021-09-27T09:47:54Z</time>
      </trkpt>
      <trkpt lat="44.78191" lon="5.54543">
        <ele>1889</ele>
        <time>2021-09-27T09:48:35Z</time>
      </trkpt>
      <trkpt lat="44.78202" lon="5.5458">
        <ele>1895</ele>
        <time>2021-09-27T09:49:15Z</time>
      </trkpt>
      <trkpt lat="44.78213" lon="5.54616">
        <ele>1901</ele>
        <time>2021-09-27T09:49:54Z</time>
      </trkpt>
      <trkpt lat="44.78227" lon="5.54652">
        <ele>1907</ele>
        <time>2021-09-27T09:50:32Z</time>
      </trkpt>
      <trkpt lat="44.78238" lon="5.54689">
        <ele>1912</ele>
        <time>2021-09-27T09:51:11Z</time>
      </trkpt>
      <trkpt lat="44.78264" lon="5.54693">
        <ele>1923</ele>
        <time>2021-09-27T09:52:18Z</time>
      </trkpt>
      <trkpt lat="44.7828" lon="5.54711">
        <ele>1931</ele>
        <time>2021-09-27T09:53:06Z</time>
      </trkpt>
      <trkpt lat="44.78293" lon="5.54743">
        <ele>1939</ele>
        <time>2021-09-27T09:54:03Z</time>
      </trkpt>
      <trkpt lat="44.78307" lon="5.54776">
        <ele>1945</ele>
        <time>2021-09-27T09:54:55Z</time>
      </trkpt>
      <trkpt lat="44.78318" lon="5.54811">
        <ele>1952</ele>
        <time>2021-09-27T09:55:35Z</time>
      </trkpt>
      <trkpt lat="44.78334" lon="5.54844">
        <ele>1959</ele>
        <time>2021-09-27T09:56:26Z</time>
      </trkpt>
      <trkpt lat="44.78347" lon="5.54876">
        <ele>1965</ele>
        <time>2021-09-27T09:57:13Z</time>
      </trkpt>
      <trkpt lat="44.78362" lon="5.5491">
        <ele>1969</ele>
        <time>2021-09-27T09:57:49Z</time>
      </trkpt>
      <trkpt lat="44.78372" lon="5.54899">
        <ele>1973</ele>
        <time>2021-09-27T10:09:50Z</time>
      </trkpt>
      <trkpt lat="44.78387" lon="5.54866">
        <ele>1969</ele>
        <time>2021-09-27T10:10:18Z</time>
      </trkpt>
      <trkpt lat="44.78407" lon="5.54842">
        <ele>1963</ele>
        <time>2021-09-27T10:10:59Z</time>
      </trkpt>
      <trkpt lat="44.78422" lon="5.54823">
        <ele>1955</ele>
        <time>2021-09-27T10:12:01Z</time>
      </trkpt>
      <trkpt lat="44.78421" lon="5.54792">
        <ele>1952</ele>
        <time>2021-09-27T10:14:59Z</time>
      </trkpt>
      <trkpt lat="44.78416" lon="5.54753">
        <ele>1946</ele>
        <time>2021-09-27T10:15:31Z</time>
      </trkpt>
      <trkpt lat="44.78408" lon="5.54717">
        <ele>1938</ele>
        <time>2021-09-27T10:16:04Z</time>
      </trkpt>
      <trkpt lat="44.78405" lon="5.54676">
        <ele>1928</ele>
        <time>2021-09-27T10:16:40Z</time>
      </trkpt>
      <trkpt lat="44.78404" lon="5.54654">
        <ele>1919</ele>
        <time>2021-09-27T10:17:23Z</time>
      </trkpt>
      <trkpt lat="44.78426" lon="5.54649">
        <ele>1907</ele>
        <time>2021-09-27T10:18:16Z</time>
      </trkpt>
      <trkpt lat="44.78451" lon="5.54647">
        <ele>1896</ele>
        <time>2021-09-27T10:18:58Z</time>
      </trkpt>
      <trkpt lat="44.78476" lon="5.54662">
        <ele>1886</ele>
        <time>2021-09-27T10:19:43Z</time>
      </trkpt>
      <trkpt lat="44.78498" lon="5.54684">
        <ele>1878</ele>
        <time>2021-09-27T10:20:22Z</time>
      </trkpt>
      <trkpt lat="44.78515" lon="5.54713">
        <ele>1873</ele>
        <time>2021-09-27T10:20:56Z</time>
      </trkpt>
      <trkpt lat="44.78534" lon="5.5474">
        <ele>1868</ele>
        <time>2021-09-27T10:21:22Z</time>
      </trkpt>
      <trkpt lat="44.78546" lon="5.54772">
        <ele>1864</ele>
        <time>2021-09-27T10:21:53Z</time>
      </trkpt>
      <trkpt lat="44.78549" lon="5.54801">
        <ele>1859</ele>
        <time>2021-09-27T10:22:19Z</time>
      </trkpt>
      <trkpt lat="44.78548" lon="5.5484">
        <ele>1856</ele>
        <time>2021-09-27T10:22:44Z</time>
      </trkpt>
      <trkpt lat="44.78548" lon="5.54877">
        <ele>1854</ele>
        <time>2021-09-27T10:23:16Z</time>
      </trkpt>
      <trkpt lat="44.78551" lon="5.549">
        <ele>1847</ele>
        <time>2021-09-27T10:24:37Z</time>
      </trkpt>
      <trkpt lat="44.78569" lon="5.54894">
        <ele>1835</ele>
        <time>2021-09-27T10:25:57Z</time>
      </trkpt>
      <trkpt lat="44.78589" lon="5.54869">
        <ele>1829</ele>
        <time>2021-09-27T10:26:31Z</time>
      </trkpt>
      <trkpt lat="44.78606" lon="5.54844">
        <ele>1821</ele>
        <time>2021-09-27T10:27:11Z</time>
      </trkpt>
      <trkpt lat="44.78627" lon="5.54848">
        <ele>1814</ele>
        <time>2021-09-27T10:27:53Z</time>
      </trkpt>
      <trkpt lat="44.78636" lon="5.54875">
        <ele>1807</ele>
        <time>2021-09-27T10:28:23Z</time>
      </trkpt>
      <trkpt lat="44.78639" lon="5.5491">
        <ele>1803</ele>
        <time>2021-09-27T10:28:53Z</time>
      </trkpt>
      <trkpt lat="44.78643" lon="5.5492">
        <ele>1797</ele>
        <time>2021-09-27T10:41:36Z</time>
      </trkpt>
      <trkpt lat="44.78643" lon="5.54922">
        <ele>1797</ele>
        <time>2021-09-27T10:50:24Z</time>
      </trkpt>
      <trkpt lat="44.78656" lon="5.54934">
        <ele>1797</ele>
        <time>2021-09-27T10:56:52Z</time>
      </trkpt>
      <trkpt lat="44.78643" lon="5.54956">
        <ele>1791</ele>
        <time>2021-09-27T10:57:50Z</time>
      </trkpt>
      <trkpt lat="44.78621" lon="5.54977">
        <ele>1788</ele>
        <time>2021-09-27T10:58:29Z</time>
      </trkpt>
      <trkpt lat="44.78607" lon="5.5501">
        <ele>1781</ele>
        <time>2021-09-27T10:59:03Z</time>
      </trkpt>
      <trkpt lat="44.78602" lon="5.55047">
        <ele>1776</ele>
        <time>2021-09-27T10:59:31Z</time>
      </trkpt>
      <trkpt lat="44.78618" lon="5.5507">
        <ele>1767</ele>
        <time>2021-09-27T11:00:00Z</time>
      </trkpt>
      <trkpt lat="44.78638" lon="5.551">
        <ele>1760</ele>
        <time>2021-09-27T11:00:26Z</time>
      </trkpt>
      <trkpt lat="44.7865" lon="5.55135">
        <ele>1756</ele>
        <time>2021-09-27T11:00:50Z</time>
      </trkpt>
      <trkpt lat="44.78663" lon="5.55168">
        <ele>1753</ele>
        <time>2021-09-27T11:01:14Z</time>
      </trkpt>
      <trkpt lat="44.78683" lon="5.55187">
        <ele>1743</ele>
        <time>2021-09-27T11:01:56Z</time>
      </trkpt>
      <trkpt lat="44.7871" lon="5.55206">
        <ele>1733</ele>
        <time>2021-09-27T11:02:24Z</time>
      </trkpt>
      <trkpt lat="44.78729" lon="5.55234">
        <ele>1726</ele>
        <time>2021-09-27T11:02:47Z</time>
      </trkpt>
      <trkpt lat="44.78747" lon="5.55257">
        <ele>1719</ele>
        <time>2021-09-27T11:03:19Z</time>
      </trkpt>
      <trkpt lat="44.78767" lon="5.55287">
        <ele>1712</ele>
        <time>2021-09-27T11:03:48Z</time>
      </trkpt>
      <trkpt lat="44.78781" lon="5.55312">
        <ele>1706</ele>
        <time>2021-09-27T11:04:19Z</time>
      </trkpt>
      <trkpt lat="44.78762" lon="5.55342">
        <ele>1700</ele>
        <time>2021-09-27T11:04:56Z</time>
      </trkpt>
      <trkpt lat="44.78736" lon="5.55372">
        <ele>1698</ele>
        <time>2021-09-27T11:05:31Z</time>
      </trkpt>
      <trkpt lat="44.78716" lon="5.55409">
        <ele>1698</ele>
        <time>2021-09-27T11:06:01Z</time>
      </trkpt>
      <trkpt lat="44.78702" lon="5.55444">
        <ele>1689</ele>
        <time>2021-09-27T11:06:38Z</time>
      </trkpt>
      <trkpt lat="44.7869" lon="5.5548">
        <ele>1682</ele>
        <time>2021-09-27T11:07:09Z</time>
      </trkpt>
      <trkpt lat="44.78711" lon="5.55493">
        <ele>1674</ele>
        <time>2021-09-27T11:07:41Z</time>
      </trkpt>
      <trkpt lat="44.78724" lon="5.55512">
        <ele>1665</ele>
        <time>2021-09-27T11:08:15Z</time>
      </trkpt>
      <trkpt lat="44.7875" lon="5.55527">
        <ele>1658</ele>
        <time>2021-09-27T11:08:39Z</time>
      </trkpt>
      <trkpt lat="44.78771" lon="5.55546">
        <ele>1659</ele>
        <time>2021-09-27T11:09:14Z</time>
      </trkpt>
      <trkpt lat="44.78782" lon="5.55582">
        <ele>1661</ele>
        <time>2021-09-27T11:09:44Z</time>
      </trkpt>
      <trkpt lat="44.78781" lon="5.55622">
        <ele>1665</ele>
        <time>2021-09-27T11:10:14Z</time>
      </trkpt>
      <trkpt lat="44.7879" lon="5.55655">
        <ele>1667</ele>
        <time>2021-09-27T11:10:39Z</time>
      </trkpt>
      <trkpt lat="44.788" lon="5.55687">
        <ele>1667</ele>
        <time>2021-09-27T11:11:03Z</time>
      </trkpt>
      <trkpt lat="44.78815" lon="5.55717">
        <ele>1669</ele>
        <time>2021-09-27T11:11:28Z</time>
      </trkpt>
      <trkpt lat="44.78822" lon="5.55752">
        <ele>1669</ele>
        <time>2021-09-27T11:11:52Z</time>
      </trkpt>
      <trkpt lat="44.78845" lon="5.55771">
        <ele>1668</ele>
        <time>2021-09-27T11:12:16Z</time>
      </trkpt>
      <trkpt lat="44.78867" lon="5.55797">
        <ele>1667</ele>
        <time>2021-09-27T11:12:41Z</time>
      </trkpt>
      <trkpt lat="44.78891" lon="5.55818">
        <ele>1667</ele>
        <time>2021-09-27T11:13:08Z</time>
      </trkpt>
      <trkpt lat="44.78912" lon="5.55848">
        <ele>1669</ele>
        <time>2021-09-27T11:13:39Z</time>
      </trkpt>
      <trkpt lat="44.78938" lon="5.55875">
        <ele>1673</ele>
        <time>2021-09-27T11:14:12Z</time>
      </trkpt>
      <trkpt lat="44.78957" lon="5.55907">
        <ele>1677</ele>
        <time>2021-09-27T11:14:46Z</time>
      </trkpt>
      <trkpt lat="44.78972" lon="5.55935">
        <ele>1684</ele>
        <time>2021-09-27T11:15:34Z</time>
      </trkpt>
      <trkpt lat="44.78979" lon="5.55974">
        <ele>1689</ele>
        <time>2021-09-27T11:16:07Z</time>
      </trkpt>
      <trkpt lat="44.78977" lon="5.56012">
        <ele>1691</ele>
        <time>2021-09-27T11:16:34Z</time>
      </trkpt>
      <trkpt lat="44.78979" lon="5.56047">
        <ele>1693</ele>
        <time>2021-09-27T11:17:14Z</time>
      </trkpt>
      <trkpt lat="44.78954" lon="5.56053">
        <ele>1697</ele>
        <time>2021-09-27T11:18:04Z</time>
      </trkpt>
      <trkpt lat="44.7894" lon="5.56091">
        <ele>1700</ele>
        <time>2021-09-27T11:18:38Z</time>
      </trkpt>
      <trkpt lat="44.78931" lon="5.56126">
        <ele>1705</ele>
        <time>2021-09-27T11:19:41Z</time>
      </trkpt>
      <trkpt lat="44.78914" lon="5.56151">
        <ele>1706</ele>
        <time>2021-09-27T11:20:33Z</time>
      </trkpt>
      <trkpt lat="44.78887" lon="5.56162">
        <ele>1701</ele>
        <time>2021-09-27T11:21:14Z</time>
      </trkpt>
      <trkpt lat="44.7887" lon="5.56197">
        <ele>1697</ele>
        <time>2021-09-27T11:21:47Z</time>
      </trkpt>
      <trkpt lat="44.78846" lon="5.56218">
        <ele>1695</ele>
        <time>2021-09-27T11:22:24Z</time>
      </trkpt>
      <trkpt lat="44.78823" lon="5.56239">
        <ele>1690</ele>
        <time>2021-09-27T11:22:55Z</time>
      </trkpt>
      <trkpt lat="44.78793" lon="5.56254">
        <ele>1684</ele>
        <time>2021-09-27T11:23:44Z</time>
      </trkpt>
      <trkpt lat="44.78765" lon="5.56276">
        <ele>1680</ele>
        <time>2021-09-27T11:24:13Z</time>
      </trkpt>
      <trkpt lat="44.78754" lon="5.56319">
        <ele>1679</ele>
        <time>2021-09-27T11:24:46Z</time>
      </trkpt>
      <trkpt lat="44.78753" lon="5.56362">
        <ele>1679</ele>
        <time>2021-09-27T11:25:20Z</time>
      </trkpt>
      <trkpt lat="44.78754" lon="5.56348">
        <ele>1679</ele>
        <time>2021-09-27T11:26:18Z</time>
      </trkpt>
      <trkpt lat="44.78731" lon="5.56316">
        <ele>1676</ele>
        <time>2021-09-27T11:26:54Z</time>
      </trkpt>
      <trkpt lat="44.78712" lon="5.56346">
        <ele>1671</ele>
        <time>2021-09-27T11:27:37Z</time>
      </trkpt>
      <trkpt lat="44.78687" lon="5.56364">
        <ele>1670</ele>
        <time>2021-09-27T11:29:27Z</time>
      </trkpt>
      <trkpt lat="44.7866" lon="5.56385">
        <ele>1667</ele>
        <time>2021-09-27T11:29:55Z</time>
      </trkpt>
      <trkpt lat="44.78638" lon="5.56411">
        <ele>1666</ele>
        <time>2021-09-27T11:31:03Z</time>
      </trkpt>
      <trkpt lat="44.78614" lon="5.56439">
        <ele>1662</ele>
        <time>2021-09-27T11:31:40Z</time>
      </trkpt>
      <trkpt lat="44.78582" lon="5.56449">
        <ele>1659</ele>
        <time>2021-09-27T11:32:13Z</time>
      </trkpt>
      <trkpt lat="44.78567" lon="5.56489">
        <ele>1659</ele>
        <time>2021-09-27T11:32:41Z</time>
      </trkpt>
      <trkpt lat="44.78551" lon="5.56525">
        <ele>1657</ele>
        <time>2021-09-27T11:33:07Z</time>
      </trkpt>
      <trkpt lat="44.78539" lon="5.56553">
        <ele>1661</ele>
        <time>2021-09-27T11:33:51Z</time>
      </trkpt>
      <trkpt lat="44.78514" lon="5.56573">
        <ele>1663</ele>
        <time>2021-09-27T11:34:20Z</time>
      </trkpt>
      <trkpt lat="44.78484" lon="5.56586">
        <ele>1667</ele>
        <time>2021-09-27T11:34:56Z</time>
      </trkpt>
      <trkpt lat="44.78464" lon="5.56616">
        <ele>1669</ele>
        <time>2021-09-27T11:35:31Z</time>
      </trkpt>
      <trkpt lat="44.78436" lon="5.56633">
        <ele>1666</ele>
        <time>2021-09-27T11:36:01Z</time>
      </trkpt>
      <trkpt lat="44.78408" lon="5.5665">
        <ele>1661</ele>
        <time>2021-09-27T11:36:28Z</time>
      </trkpt>
      <trkpt lat="44.78396" lon="5.56692">
        <ele>1657</ele>
        <time>2021-09-27T11:36:54Z</time>
      </trkpt>
      <trkpt lat="44.78382" lon="5.56729">
        <ele>1655</ele>
        <time>2021-09-27T11:37:18Z</time>
      </trkpt>
      <trkpt lat="44.78372" lon="5.56764">
        <ele>1648</ele>
        <time>2021-09-27T11:37:45Z</time>
      </trkpt>
      <trkpt lat="44.78354" lon="5.56793">
        <ele>1638</ele>
        <time>2021-09-27T11:38:20Z</time>
      </trkpt>
      <trkpt lat="44.78363" lon="5.56827">
        <ele>1628</ele>
        <time>2021-09-27T11:38:50Z</time>
      </trkpt>
      <trkpt lat="44.78368" lon="5.56866">
        <ele>1622</ele>
        <time>2021-09-27T11:39:18Z</time>
      </trkpt>
      <trkpt lat="44.78346" lon="5.56899">
        <ele>1622</ele>
        <time>2021-09-27T11:39:48Z</time>
      </trkpt>
      <trkpt lat="44.78333" lon="5.56944">
        <ele>1622</ele>
        <time>2021-09-27T11:40:24Z</time>
      </trkpt>
      <trkpt lat="44.78319" lon="5.56992">
        <ele>1622</ele>
        <time>2021-09-27T11:40:55Z</time>
      </trkpt>
      <trkpt lat="44.78298" lon="5.57036">
        <ele>1622</ele>
        <time>2021-09-27T11:41:29Z</time>
      </trkpt>
      <trkpt lat="44.78281" lon="5.57074">
        <ele>1622</ele>
        <time>2021-09-27T11:42:07Z</time>
      </trkpt>
      <trkpt lat="44.78286" lon="5.57116">
        <ele>1619</ele>
        <time>2021-09-27T11:42:52Z</time>
      </trkpt>
      <trkpt lat="44.7828" lon="5.57156">
        <ele>1618</ele>
        <time>2021-09-27T11:43:23Z</time>
      </trkpt>
      <trkpt lat="44.78264" lon="5.57192">
        <ele>1618</ele>
        <time>2021-09-27T11:43:55Z</time>
      </trkpt>
      <trkpt lat="44.78243" lon="5.57223">
        <ele>1620</ele>
        <time>2021-09-27T11:44:26Z</time>
      </trkpt>
      <trkpt lat="44.78222" lon="5.57247">
        <ele>1622</ele>
        <time>2021-09-27T11:45:14Z</time>
      </trkpt>
      <trkpt lat="44.78201" lon="5.57274">
        <ele>1627</ele>
        <time>2021-09-27T11:45:53Z</time>
      </trkpt>
      <trkpt lat="44.78182" lon="5.57299">
        <ele>1635</ele>
        <time>2021-09-27T11:46:37Z</time>
      </trkpt>
      <trkpt lat="44.78166" lon="5.57334">
        <ele>1645</ele>
        <time>2021-09-27T11:47:27Z</time>
      </trkpt>
      <trkpt lat="44.78154" lon="5.57368">
        <ele>1651</ele>
        <time>2021-09-27T11:48:04Z</time>
      </trkpt>
      <trkpt lat="44.78142" lon="5.57399">
        <ele>1656</ele>
        <time>2021-09-27T11:48:41Z</time>
      </trkpt>
      <trkpt lat="44.78134" lon="5.57439">
        <ele>1659</ele>
        <time>2021-09-27T11:49:15Z</time>
      </trkpt>
      <trkpt lat="44.78123" lon="5.57476">
        <ele>1664</ele>
        <time>2021-09-27T11:49:49Z</time>
      </trkpt>
      <trkpt lat="44.7811" lon="5.57509">
        <ele>1668</ele>
        <time>2021-09-27T11:50:28Z</time>
      </trkpt>
      <trkpt lat="44.78097" lon="5.57544">
        <ele>1670</ele>
        <time>2021-09-27T11:50:58Z</time>
      </trkpt>
      <trkpt lat="44.78083" lon="5.57577">
        <ele>1674</ele>
        <time>2021-09-27T11:52:02Z</time>
      </trkpt>
      <trkpt lat="44.78064" lon="5.57604">
        <ele>1670</ele>
        <time>2021-09-27T11:52:32Z</time>
      </trkpt>
      <trkpt lat="44.78054" lon="5.5764">
        <ele>1665</ele>
        <time>2021-09-27T11:53:02Z</time>
      </trkpt>
      <trkpt lat="44.78043" lon="5.57675">
        <ele>1661</ele>
        <time>2021-09-27T11:53:33Z</time>
      </trkpt>
      <trkpt lat="44.78027" lon="5.57702">
        <ele>1655</ele>
        <time>2021-09-27T11:54:18Z</time>
      </trkpt>
      <trkpt lat="44.78011" lon="5.57735">
        <ele>1648</ele>
        <time>2021-09-27T11:54:47Z</time>
      </trkpt>
      <trkpt lat="44.78005" lon="5.57772">
        <ele>1643</ele>
        <time>2021-09-27T11:55:12Z</time>
      </trkpt>
      <trkpt lat="44.77992" lon="5.57807">
        <ele>1638</ele>
        <time>2021-09-27T11:55:38Z</time>
      </trkpt>
      <trkpt lat="44.77975" lon="5.57837">
        <ele>1634</ele>
        <time>2021-09-27T11:56:05Z</time>
      </trkpt>
      <trkpt lat="44.77959" lon="5.5787">
        <ele>1633</ele>
        <time>2021-09-27T11:56:33Z</time>
      </trkpt>
      <trkpt lat="44.77943" lon="5.579">
        <ele>1633</ele>
        <time>2021-09-27T11:57:02Z</time>
      </trkpt>
      <trkpt lat="44.77934" lon="5.57937">
        <ele>1633</ele>
        <time>2021-09-27T11:57:28Z</time>
      </trkpt>
      <trkpt lat="44.77919" lon="5.57966">
        <ele>1631</ele>
        <time>2021-09-27T11:57:55Z</time>
      </trkpt>
      <trkpt lat="44.77901" lon="5.57998">
        <ele>1629</ele>
        <time>2021-09-27T11:58:19Z</time>
      </trkpt>
      <trkpt lat="44.77882" lon="5.58026">
        <ele>1629</ele>
        <time>2021-09-27T11:58:46Z</time>
      </trkpt>
      <trkpt lat="44.77862" lon="5.58057">
        <ele>1636</ele>
        <time>2021-09-27T11:59:28Z</time>
      </trkpt>
      <trkpt lat="44.77847" lon="5.58089">
        <ele>1651</ele>
        <time>2021-09-27T12:00:50Z</time>
      </trkpt>
      <trkpt lat="44.77825" lon="5.58109">
        <ele>1661</ele>
        <time>2021-09-27T12:02:01Z</time>
      </trkpt>
      <trkpt lat="44.7781" lon="5.58144">
        <ele>1671</ele>
        <time>2021-09-27T12:03:19Z</time>
      </trkpt>
      <trkpt lat="44.77796" lon="5.58179">
        <ele>1680</ele>
        <time>2021-09-27T12:04:08Z</time>
      </trkpt>
      <trkpt lat="44.7778" lon="5.58202">
        <ele>1685</ele>
        <time>2021-09-27T12:06:19Z</time>
      </trkpt>
      <trkpt lat="44.77755" lon="5.5819">
        <ele>1680</ele>
        <time>2021-09-27T12:06:50Z</time>
      </trkpt>
      <trkpt lat="44.77728" lon="5.58194">
        <ele>1677</ele>
        <time>2021-09-27T12:07:19Z</time>
      </trkpt>
      <trkpt lat="44.77701" lon="5.58191">
        <ele>1673</ele>
        <time>2021-09-27T12:07:49Z</time>
      </trkpt>
      <trkpt lat="44.77674" lon="5.58192">
        <ele>1667</ele>
        <time>2021-09-27T12:08:18Z</time>
      </trkpt>
      <trkpt lat="44.77648" lon="5.58203">
        <ele>1661</ele>
        <time>2021-09-27T12:08:49Z</time>
      </trkpt>
      <trkpt lat="44.77622" lon="5.58214">
        <ele>1655</ele>
        <time>2021-09-27T12:09:20Z</time>
      </trkpt>
      <trkpt lat="44.77594" lon="5.58215">
        <ele>1650</ele>
        <time>2021-09-27T12:09:47Z</time>
      </trkpt>
      <trkpt lat="44.77568" lon="5.58224">
        <ele>1649</ele>
        <time>2021-09-27T12:10:12Z</time>
      </trkpt>
      <trkpt lat="44.77541" lon="5.58228">
        <ele>1647</ele>
        <time>2021-09-27T12:10:40Z</time>
      </trkpt>
      <trkpt lat="44.77513" lon="5.58225">
        <ele>1647</ele>
        <time>2021-09-27T12:11:04Z</time>
      </trkpt>
      <trkpt lat="44.77487" lon="5.58214">
        <ele>1648</ele>
        <time>2021-09-27T12:11:31Z</time>
      </trkpt>
      <trkpt lat="44.77462" lon="5.58196">
        <ele>1647</ele>
        <time>2021-09-27T12:12:03Z</time>
      </trkpt>
      <trkpt lat="44.77439" lon="5.58176">
        <ele>1640</ele>
        <time>2021-09-27T12:12:45Z</time>
      </trkpt>
      <trkpt lat="44.77418" lon="5.5815">
        <ele>1629</ele>
        <time>2021-09-27T12:13:25Z</time>
      </trkpt>
      <trkpt lat="44.77391" lon="5.58152">
        <ele>1624</ele>
        <time>2021-09-27T12:13:49Z</time>
      </trkpt>
      <trkpt lat="44.77365" lon="5.58154">
        <ele>1621</ele>
        <time>2021-09-27T12:14:14Z</time>
      </trkpt>
      <trkpt lat="44.77335" lon="5.58145">
        <ele>1617</ele>
        <time>2021-09-27T12:15:01Z</time>
      </trkpt>
      <trkpt lat="44.77307" lon="5.58133">
        <ele>1614</ele>
        <time>2021-09-27T12:15:29Z</time>
      </trkpt>
      <trkpt lat="44.77283" lon="5.58117">
        <ele>1610</ele>
        <time>2021-09-27T12:15:59Z</time>
      </trkpt>
      <trkpt lat="44.77261" lon="5.58093">
        <ele>1610</ele>
        <time>2021-09-27T12:16:32Z</time>
      </trkpt>
      <trkpt lat="44.77239" lon="5.58065">
        <ele>1612</ele>
        <time>2021-09-27T12:17:52Z</time>
      </trkpt>
      <trkpt lat="44.77219" lon="5.58041">
        <ele>1612</ele>
        <time>2021-09-27T12:18:25Z</time>
      </trkpt>
      <trkpt lat="44.77191" lon="5.58039">
        <ele>1613</ele>
        <time>2021-09-27T12:19:27Z</time>
      </trkpt>
      <trkpt lat="44.77161" lon="5.58039">
        <ele>1616</ele>
        <time>2021-09-27T12:20:11Z</time>
      </trkpt>
      <trkpt lat="44.77131" lon="5.58028">
        <ele>1616</ele>
        <time>2021-09-27T12:20:42Z</time>
      </trkpt>
      <trkpt lat="44.77102" lon="5.58017">
        <ele>1617</ele>
        <time>2021-09-27T12:21:25Z</time>
      </trkpt>
      <trkpt lat="44.77075" lon="5.58004">
        <ele>1618</ele>
        <time>2021-09-27T12:21:55Z</time>
      </trkpt>
      <trkpt lat="44.77047" lon="5.58">
        <ele>1620</ele>
        <time>2021-09-27T12:22:22Z</time>
      </trkpt>
      <trkpt lat="44.77017" lon="5.58002">
        <ele>1619</ele>
        <time>2021-09-27T12:23:19Z</time>
      </trkpt>
      <trkpt lat="44.76989" lon="5.57995">
        <ele>1620</ele>
        <time>2021-09-27T12:24:25Z</time>
      </trkpt>
      <trkpt lat="44.76964" lon="5.57982">
        <ele>1618</ele>
        <time>2021-09-27T12:25:07Z</time>
      </trkpt>
      <trkpt lat="44.76936" lon="5.57982">
        <ele>1616</ele>
        <time>2021-09-27T12:25:34Z</time>
      </trkpt>
      <trkpt lat="44.76911" lon="5.58002">
        <ele>1614</ele>
        <time>2021-09-27T12:26:07Z</time>
      </trkpt>
      <trkpt lat="44.76897" lon="5.58034">
        <ele>1614</ele>
        <time>2021-09-27T12:26:34Z</time>
      </trkpt>
      <trkpt lat="44.76894" lon="5.58073">
        <ele>1615</ele>
        <time>2021-09-27T12:27:03Z</time>
      </trkpt>
      <trkpt lat="44.76872" lon="5.58105">
        <ele>1615</ele>
        <time>2021-09-27T12:27:34Z</time>
      </trkpt>
      <trkpt lat="44.76848" lon="5.5813">
        <ele>1615</ele>
        <time>2021-09-27T12:28:00Z</time>
      </trkpt>
      <trkpt lat="44.76824" lon="5.58159">
        <ele>1615</ele>
        <time>2021-09-27T12:28:27Z</time>
      </trkpt>
      <trkpt lat="44.76799" lon="5.58181">
        <ele>1616</ele>
        <time>2021-09-27T12:28:55Z</time>
      </trkpt>
      <trkpt lat="44.76774" lon="5.582">
        <ele>1615</ele>
        <time>2021-09-27T12:29:19Z</time>
      </trkpt>
      <trkpt lat="44.76747" lon="5.58217">
        <ele>1615</ele>
        <time>2021-09-27T12:29:44Z</time>
      </trkpt>
      <trkpt lat="44.76723" lon="5.58241">
        <ele>1614</ele>
        <time>2021-09-27T12:30:10Z</time>
      </trkpt>
      <trkpt lat="44.76693" lon="5.58239">
        <ele>1613</ele>
        <time>2021-09-27T12:30:36Z</time>
      </trkpt>
      <trkpt lat="44.76659" lon="5.58235">
        <ele>1615</ele>
        <time>2021-09-27T12:31:08Z</time>
      </trkpt>
      <trkpt lat="44.76634" lon="5.58257">
        <ele>1616</ele>
        <time>2021-09-27T12:31:33Z</time>
      </trkpt>
      <trkpt lat="44.76612" lon="5.58282">
        <ele>1615</ele>
        <time>2021-09-27T12:31:56Z</time>
      </trkpt>
      <trkpt lat="44.76583" lon="5.5828">
        <ele>1620</ele>
        <time>2021-09-27T12:32:27Z</time>
      </trkpt>
      <trkpt lat="44.76558" lon="5.58268">
        <ele>1624</ele>
        <time>2021-09-27T12:33:04Z</time>
      </trkpt>
      <trkpt lat="44.7653" lon="5.58269">
        <ele>1625</ele>
        <time>2021-09-27T12:33:31Z</time>
      </trkpt>
      <trkpt lat="44.76509" lon="5.58252">
        <ele>1626</ele>
        <time>2021-09-27T12:36:19Z</time>
      </trkpt>
      <trkpt lat="44.76508" lon="5.58246">
        <ele>1628</ele>
        <time>2021-09-27T12:37:54Z</time>
      </trkpt>
      <trkpt lat="44.76523" lon="5.5828">
        <ele>1626</ele>
        <time>2021-09-27T12:38:18Z</time>
      </trkpt>
      <trkpt lat="44.76539" lon="5.58313">
        <ele>1630</ele>
        <time>2021-09-27T12:38:48Z</time>
      </trkpt>
      <trkpt lat="44.76552" lon="5.58342">
        <ele>1638</ele>
        <time>2021-09-27T12:41:39Z</time>
      </trkpt>
      <trkpt lat="44.7656" lon="5.58365">
        <ele>1644</ele>
        <time>2021-09-27T12:42:46Z</time>
      </trkpt>
      <trkpt lat="44.76549" lon="5.58332">
        <ele>1637</ele>
        <time>2021-09-27T12:44:18Z</time>
      </trkpt>
      <trkpt lat="44.76532" lon="5.58301">
        <ele>1631</ele>
        <time>2021-09-27T12:44:59Z</time>
      </trkpt>
      <trkpt lat="44.76517" lon="5.58267">
        <ele>1627</ele>
        <time>2021-09-27T12:45:25Z</time>
      </trkpt>
      <trkpt lat="44.76502" lon="5.58233">
        <ele>1626</ele>
        <time>2021-09-27T12:45:49Z</time>
      </trkpt>
      <trkpt lat="44.76487" lon="5.58201">
        <ele>1628</ele>
        <time>2021-09-27T12:46:13Z</time>
      </trkpt>
      <trkpt lat="44.76472" lon="5.58168">
        <ele>1629</ele>
        <time>2021-09-27T12:46:39Z</time>
      </trkpt>
      <trkpt lat="44.76457" lon="5.58137">
        <ele>1633</ele>
        <time>2021-09-27T12:47:08Z</time>
      </trkpt>
      <trkpt lat="44.76433" lon="5.58124">
        <ele>1634</ele>
        <time>2021-09-27T12:47:33Z</time>
      </trkpt>
      <trkpt lat="44.76405" lon="5.58127">
        <ele>1635</ele>
        <time>2021-09-27T12:48:00Z</time>
      </trkpt>
      <trkpt lat="44.76378" lon="5.58124">
        <ele>1639</ele>
        <time>2021-09-27T12:48:34Z</time>
      </trkpt>
      <trkpt lat="44.76351" lon="5.58108">
        <ele>1647</ele>
        <time>2021-09-27T12:49:30Z</time>
      </trkpt>
      <trkpt lat="44.76327" lon="5.58093">
        <ele>1657</ele>
        <time>2021-09-27T12:50:55Z</time>
      </trkpt>
      <trkpt lat="44.76322" lon="5.58066">
        <ele>1668</ele>
        <time>2021-09-27T12:52:10Z</time>
      </trkpt>
      <trkpt lat="44.76305" lon="5.58052">
        <ele>1678</ele>
        <time>2021-09-27T12:53:35Z</time>
      </trkpt>
      <trkpt lat="44.76282" lon="5.5804">
        <ele>1685</ele>
        <time>2021-09-27T12:54:31Z</time>
      </trkpt>
      <trkpt lat="44.76252" lon="5.58033">
        <ele>1693</ele>
        <time>2021-09-27T12:55:41Z</time>
      </trkpt>
      <trkpt lat="44.76231" lon="5.58026">
        <ele>1700</ele>
        <time>2021-09-27T12:57:02Z</time>
      </trkpt>
      <trkpt lat="44.76199" lon="5.58026">
        <ele>1703</ele>
        <time>2021-09-27T12:57:41Z</time>
      </trkpt>
      <trkpt lat="44.76176" lon="5.58003">
        <ele>1711</ele>
        <time>2021-09-27T12:58:47Z</time>
      </trkpt>
      <trkpt lat="44.76174" lon="5.57968">
        <ele>1719</ele>
        <time>2021-09-27T12:59:37Z</time>
      </trkpt>
      <trkpt lat="44.76175" lon="5.57929">
        <ele>1721</ele>
        <time>2021-09-27T13:00:18Z</time>
      </trkpt>
      <trkpt lat="44.76178" lon="5.5789">
        <ele>1721</ele>
        <time>2021-09-27T13:00:44Z</time>
      </trkpt>
      <trkpt lat="44.76181" lon="5.57851">
        <ele>1719</ele>
        <time>2021-09-27T13:01:11Z</time>
      </trkpt>
      <trkpt lat="44.76189" lon="5.57815">
        <ele>1719</ele>
        <time>2021-09-27T13:01:37Z</time>
      </trkpt>
      <trkpt lat="44.76199" lon="5.5778">
        <ele>1719</ele>
        <time>2021-09-27T13:02:03Z</time>
      </trkpt>
      <trkpt lat="44.76204" lon="5.57742">
        <ele>1719</ele>
        <time>2021-09-27T13:02:28Z</time>
      </trkpt>
      <trkpt lat="44.76209" lon="5.57703">
        <ele>1718</ele>
        <time>2021-09-27T13:02:52Z</time>
      </trkpt>
      <trkpt lat="44.76212" lon="5.57664">
        <ele>1717</ele>
        <time>2021-09-27T13:03:15Z</time>
      </trkpt>
      <trkpt lat="44.76217" lon="5.57625">
        <ele>1716</ele>
        <time>2021-09-27T13:03:38Z</time>
      </trkpt>
      <trkpt lat="44.76218" lon="5.57586">
        <ele>1715</ele>
        <time>2021-09-27T13:04:01Z</time>
      </trkpt>
      <trkpt lat="44.76219" lon="5.57546">
        <ele>1714</ele>
        <time>2021-09-27T13:04:25Z</time>
      </trkpt>
      <trkpt lat="44.76214" lon="5.57508">
        <ele>1712</ele>
        <time>2021-09-27T13:04:48Z</time>
      </trkpt>
      <trkpt lat="44.76212" lon="5.5747">
        <ele>1712</ele>
        <time>2021-09-27T13:05:11Z</time>
      </trkpt>
      <trkpt lat="44.76209" lon="5.57431">
        <ele>1711</ele>
        <time>2021-09-27T13:05:35Z</time>
      </trkpt>
      <trkpt lat="44.76206" lon="5.57393">
        <ele>1711</ele>
        <time>2021-09-27T13:05:59Z</time>
      </trkpt>
      <trkpt lat="44.762" lon="5.57354">
        <ele>1710</ele>
        <time>2021-09-27T13:06:22Z</time>
      </trkpt>
      <trkpt lat="44.76198" lon="5.57318">
        <ele>1710</ele>
        <time>2021-09-27T13:06:53Z</time>
      </trkpt>
      <trkpt lat="44.76191" lon="5.57287">
        <ele>1711</ele>
        <time>2021-09-27T13:07:41Z</time>
      </trkpt>
      <trkpt lat="44.76174" lon="5.57257">
        <ele>1711</ele>
        <time>2021-09-27T13:08:08Z</time>
      </trkpt>
      <trkpt lat="44.7616" lon="5.57223">
        <ele>1717</ele>
        <time>2021-09-27T13:08:40Z</time>
      </trkpt>
      <trkpt lat="44.76147" lon="5.57188">
        <ele>1721</ele>
        <time>2021-09-27T13:09:11Z</time>
      </trkpt>
      <trkpt lat="44.76125" lon="5.57159">
        <ele>1725</ele>
        <time>2021-09-27T13:09:44Z</time>
      </trkpt>
      <trkpt lat="44.76104" lon="5.57134">
        <ele>1729</ele>
        <time>2021-09-27T13:10:14Z</time>
      </trkpt>
      <trkpt lat="44.76083" lon="5.57108">
        <ele>1732</ele>
        <time>2021-09-27T13:10:43Z</time>
      </trkpt>
      <trkpt lat="44.76063" lon="5.57082">
        <ele>1735</ele>
        <time>2021-09-27T13:11:14Z</time>
      </trkpt>
      <trkpt lat="44.76041" lon="5.5706">
        <ele>1737</ele>
        <time>2021-09-27T13:11:42Z</time>
      </trkpt>
      <trkpt lat="44.76028" lon="5.57026">
        <ele>1740</ele>
        <time>2021-09-27T13:12:09Z</time>
      </trkpt>
      <trkpt lat="44.76016" lon="5.56991">
        <ele>1740</ele>
        <time>2021-09-27T13:12:36Z</time>
      </trkpt>
      <trkpt lat="44.76001" lon="5.56958">
        <ele>1741</ele>
        <time>2021-09-27T13:13:03Z</time>
      </trkpt>
      <trkpt lat="44.76005" lon="5.56924">
        <ele>1737</ele>
        <time>2021-09-27T13:13:45Z</time>
      </trkpt>
      <trkpt lat="44.75999" lon="5.56887">
        <ele>1728</ele>
        <time>2021-09-27T13:14:18Z</time>
      </trkpt>
      <trkpt lat="44.75978" lon="5.56858">
        <ele>1719</ele>
        <time>2021-09-27T13:14:56Z</time>
      </trkpt>
      <trkpt lat="44.7596" lon="5.56829">
        <ele>1709</ele>
        <time>2021-09-27T13:15:45Z</time>
      </trkpt>
      <trkpt lat="44.75967" lon="5.56795">
        <ele>1703</ele>
        <time>2021-09-27T13:16:16Z</time>
      </trkpt>
      <trkpt lat="44.75966" lon="5.56754">
        <ele>1699</ele>
        <time>2021-09-27T13:16:50Z</time>
      </trkpt>
      <trkpt lat="44.7597" lon="5.56716">
        <ele>1692</ele>
        <time>2021-09-27T13:17:23Z</time>
      </trkpt>
      <trkpt lat="44.75968" lon="5.56676">
        <ele>1686</ele>
        <time>2021-09-27T13:17:52Z</time>
      </trkpt>
      <trkpt lat="44.75962" lon="5.56637">
        <ele>1678</ele>
        <time>2021-09-27T13:18:44Z</time>
      </trkpt>
      <trkpt lat="44.75942" lon="5.56612">
        <ele>1672</ele>
        <time>2021-09-27T13:19:45Z</time>
      </trkpt>
      <trkpt lat="44.75918" lon="5.56591">
        <ele>1665</ele>
        <time>2021-09-27T13:20:15Z</time>
      </trkpt>
      <trkpt lat="44.75899" lon="5.56563">
        <ele>1654</ele>
        <time>2021-09-27T13:20:56Z</time>
      </trkpt>
      <trkpt lat="44.75889" lon="5.56538">
        <ele>1646</ele>
        <time>2021-09-27T13:21:37Z</time>
      </trkpt>
      <trkpt lat="44.75859" lon="5.56555">
        <ele>1640</ele>
        <time>2021-09-27T13:22:17Z</time>
      </trkpt>
      <trkpt lat="44.75831" lon="5.56558">
        <ele>1629</ele>
        <time>2021-09-27T13:23:12Z</time>
      </trkpt>
      <trkpt lat="44.75825" lon="5.56524">
        <ele>1621</ele>
        <time>2021-09-27T13:23:47Z</time>
      </trkpt>
      <trkpt lat="44.75799" lon="5.56533">
        <ele>1612</ele>
        <time>2021-09-27T13:24:27Z</time>
      </trkpt>
      <trkpt lat="44.75774" lon="5.56535">
        <ele>1602</ele>
        <time>2021-09-27T13:25:03Z</time>
      </trkpt>
      <trkpt lat="44.75745" lon="5.56537">
        <ele>1592</ele>
        <time>2021-09-27T13:25:36Z</time>
      </trkpt>
      <trkpt lat="44.75721" lon="5.5654">
        <ele>1582</ele>
        <time>2021-09-27T13:26:15Z</time>
      </trkpt>
      <trkpt lat="44.75699" lon="5.56519">
        <ele>1570</ele>
        <time>2021-09-27T13:27:04Z</time>
      </trkpt>
      <trkpt lat="44.75672" lon="5.56518">
        <ele>1563</ele>
        <time>2021-09-27T13:28:23Z</time>
      </trkpt>
      <trkpt lat="44.75645" lon="5.56517">
        <ele>1556</ele>
        <time>2021-09-27T13:29:19Z</time>
      </trkpt>
      <trkpt lat="44.75625" lon="5.56489">
        <ele>1551</ele>
        <time>2021-09-27T13:29:51Z</time>
      </trkpt>
      <trkpt lat="44.75603" lon="5.56469">
        <ele>1545</ele>
        <time>2021-09-27T13:30:20Z</time>
      </trkpt>
      <trkpt lat="44.75581" lon="5.5644">
        <ele>1541</ele>
        <time>2021-09-27T13:30:47Z</time>
      </trkpt>
      <trkpt lat="44.75562" lon="5.56411">
        <ele>1534</ele>
        <time>2021-09-27T13:31:20Z</time>
      </trkpt>
      <trkpt lat="44.75556" lon="5.56373">
        <ele>1529</ele>
        <time>2021-09-27T13:32:31Z</time>
      </trkpt>
      <trkpt lat="44.75593" lon="5.56375">
        <ele>1519</ele>
        <time>2021-09-27T13:33:14Z</time>
      </trkpt>
      <trkpt lat="44.75629" lon="5.56372">
        <ele>1506</ele>
        <time>2021-09-27T13:34:03Z</time>
      </trkpt>
      <trkpt lat="44.75667" lon="5.56364">
        <ele>1497</ele>
        <time>2021-09-27T13:34:47Z</time>
      </trkpt>
      <trkpt lat="44.75692" lon="5.56348">
        <ele>1492</ele>
        <time>2021-09-27T13:35:15Z</time>
      </trkpt>
      <trkpt lat="44.75715" lon="5.56327">
        <ele>1486</ele>
        <time>2021-09-27T13:35:47Z</time>
      </trkpt>
      <trkpt lat="44.75738" lon="5.56305">
        <ele>1480</ele>
        <time>2021-09-27T13:36:20Z</time>
      </trkpt>
      <trkpt lat="44.75762" lon="5.56284">
        <ele>1473</ele>
        <time>2021-09-27T13:36:51Z</time>
      </trkpt>
      <trkpt lat="44.75786" lon="5.56258">
        <ele>1468</ele>
        <time>2021-09-27T13:37:28Z</time>
      </trkpt>
      <trkpt lat="44.75814" lon="5.56229">
        <ele>1461</ele>
        <time>2021-09-27T13:38:07Z</time>
      </trkpt>
      <trkpt lat="44.75836" lon="5.56201">
        <ele>1456</ele>
        <time>2021-09-27T13:38:47Z</time>
      </trkpt>
      <trkpt lat="44.75859" lon="5.5616">
        <ele>1442</ele>
        <time>2021-09-27T13:39:37Z</time>
      </trkpt>
      <trkpt lat="44.75888" lon="5.56152">
        <ele>1434</ele>
        <time>2021-09-27T13:40:19Z</time>
      </trkpt>
      <trkpt lat="44.75925" lon="5.56142">
        <ele>1426</ele>
        <time>2021-09-27T13:41:05Z</time>
      </trkpt>
      <trkpt lat="44.75955" lon="5.56126">
        <ele>1419</ele>
        <time>2021-09-27T13:41:46Z</time>
      </trkpt>
      <trkpt lat="44.75994" lon="5.56108">
        <ele>1409</ele>
        <time>2021-09-27T13:42:30Z</time>
      </trkpt>
      <trkpt lat="44.76037" lon="5.56097">
        <ele>1399</ele>
        <time>2021-09-27T13:43:15Z</time>
      </trkpt>
      <trkpt lat="44.76074" lon="5.56109">
        <ele>1396</ele>
        <time>2021-09-27T13:43:56Z</time>
      </trkpt>
      <trkpt lat="44.76108" lon="5.56127">
        <ele>1395</ele>
        <time>2021-09-27T13:44:29Z</time>
      </trkpt>
      <trkpt lat="44.76139" lon="5.56149">
        <ele>1395</ele>
        <time>2021-09-27T13:45:04Z</time>
      </trkpt>
      <trkpt lat="44.76165" lon="5.56171">
        <ele>1397</ele>
        <time>2021-09-27T13:45:49Z</time>
      </trkpt>
      <trkpt lat="44.76154" lon="5.56134">
        <ele>1386</ele>
        <time>2021-09-27T13:46:50Z</time>
      </trkpt>
      <trkpt lat="44.76142" lon="5.56093">
        <ele>1371</ele>
        <time>2021-09-27T13:47:44Z</time>
      </trkpt>
      <trkpt lat="44.76151" lon="5.56047">
        <ele>1359</ele>
        <time>2021-09-27T13:48:32Z</time>
      </trkpt>
      <trkpt lat="44.76125" lon="5.56024">
        <ele>1352</ele>
        <time>2021-09-27T13:49:02Z</time>
      </trkpt>
      <trkpt lat="44.76097" lon="5.56005">
        <ele>1351</ele>
        <time>2021-09-27T13:49:30Z</time>
      </trkpt>
      <trkpt lat="44.76068" lon="5.55982">
        <ele>1350</ele>
        <time>2021-09-27T13:50:06Z</time>
      </trkpt>
      <trkpt lat="44.76052" lon="5.55951">
        <ele>1349</ele>
        <time>2021-09-27T13:50:48Z</time>
      </trkpt>
      <trkpt lat="44.76025" lon="5.55921">
        <ele>1348</ele>
        <time>2021-09-27T13:51:14Z</time>
      </trkpt>
      <trkpt lat="44.75996" lon="5.55907">
        <ele>1347</ele>
        <time>2021-09-27T13:51:40Z</time>
      </trkpt>
      <trkpt lat="44.75966" lon="5.55896">
        <ele>1345</ele>
        <time>2021-09-27T13:52:05Z</time>
      </trkpt>
      <trkpt lat="44.75936" lon="5.55902">
        <ele>1345</ele>
        <time>2021-09-27T13:52:35Z</time>
      </trkpt>
      <trkpt lat="44.75908" lon="5.55887">
        <ele>1344</ele>
        <time>2021-09-27T13:53:05Z</time>
      </trkpt>
      <trkpt lat="44.75877" lon="5.55884">
        <ele>1342</ele>
        <time>2021-09-27T13:53:34Z</time>
      </trkpt>
      <trkpt lat="44.75848" lon="5.5588">
        <ele>1342</ele>
        <time>2021-09-27T13:54:07Z</time>
      </trkpt>
      <trkpt lat="44.75817" lon="5.55889">
        <ele>1342</ele>
        <time>2021-09-27T13:54:36Z</time>
      </trkpt>
      <trkpt lat="44.75791" lon="5.559">
        <ele>1340</ele>
        <time>2021-09-27T13:55:12Z</time>
      </trkpt>
      <trkpt lat="44.75762" lon="5.55906">
        <ele>1337</ele>
        <time>2021-09-27T13:55:39Z</time>
      </trkpt>
      <trkpt lat="44.75731" lon="5.55913">
        <ele>1336</ele>
        <time>2021-09-27T13:56:05Z</time>
      </trkpt>
      <trkpt lat="44.75703" lon="5.55918">
        <ele>1335</ele>
        <time>2021-09-27T13:56:32Z</time>
      </trkpt>
      <trkpt lat="44.75676" lon="5.55927">
        <ele>1334</ele>
        <time>2021-09-27T13:56:58Z</time>
      </trkpt>
      <trkpt lat="44.75649" lon="5.55936">
        <ele>1333</ele>
        <time>2021-09-27T13:57:24Z</time>
      </trkpt>
      <trkpt lat="44.75623" lon="5.55944">
        <ele>1334</ele>
        <time>2021-09-27T13:57:58Z</time>
      </trkpt>
      <trkpt lat="44.75595" lon="5.55941">
        <ele>1334</ele>
        <time>2021-09-27T13:58:25Z</time>
      </trkpt>
      <trkpt lat="44.75564" lon="5.55945">
        <ele>1336</ele>
        <time>2021-09-27T13:59:06Z</time>
      </trkpt>
      <trkpt lat="44.75528" lon="5.5594">
        <ele>1332</ele>
        <time>2021-09-27T13:59:52Z</time>
      </trkpt>
      <trkpt lat="44.75511" lon="5.55923">
        <ele>1324</ele>
        <time>2021-09-27T14:00:41Z</time>
      </trkpt>
      <trkpt lat="44.75516" lon="5.55882">
        <ele>1325</ele>
        <time>2021-09-27T14:01:30Z</time>
      </trkpt>
      <trkpt lat="44.75494" lon="5.55859">
        <ele>1332</ele>
        <time>2021-09-27T14:02:20Z</time>
      </trkpt>
      <trkpt lat="44.75461" lon="5.55836">
        <ele>1331</ele>
        <time>2021-09-27T14:02:49Z</time>
      </trkpt>
      <trkpt lat="44.75438" lon="5.55809">
        <ele>1330</ele>
        <time>2021-09-27T14:03:22Z</time>
      </trkpt>
      <trkpt lat="44.75422" lon="5.55772">
        <ele>1328</ele>
        <time>2021-09-27T14:03:48Z</time>
      </trkpt>
      <trkpt lat="44.75406" lon="5.55729">
        <ele>1327</ele>
        <time>2021-09-27T14:04:16Z</time>
      </trkpt>
      <trkpt lat="44.75391" lon="5.55678">
        <ele>1324</ele>
        <time>2021-09-27T14:04:51Z</time>
      </trkpt>
      <trkpt lat="44.75399" lon="5.55657">
        <ele>1405</ele>
        <time>2021-09-27T14:06:06Z</time>
      </trkpt>
    </trkseg>
  </trk>
</gpx>